| time (UTC) | temp C | wind direction | speed KPH | gust KPH | rain 1hr cm | rain 24hr cm | rain mn cm | humidity % | barometer mb |
| 20260502152328 | 20 | 102 | 0.0 | 0.0 | 0.00 | 0.00 | 0.00 | 33 | 991.9 |
| 20260502151330 | 20 | 102 | 0.0 | 0.0 | 0.00 | 0.00 | 0.00 | 32 | 992.0 |
| 20260502150330 | 20 | 102 | 0.0 | 0.0 | 0.00 | 0.00 | 0.00 | 31 | 991.8 |
| 20260502130319 | 21 | 101 | 0.0 | 0.0 | 0.00 | 0.00 | 0.00 | 28 | 991.6 |
| 20260502123339 | 21 | 102 | 0.0 | 0.0 | 0.00 | 0.00 | 0.00 | 29 | 991.2 |
| 20260502122343 | 21 | 101 | 0.0 | 0.0 | 0.00 | 0.00 | 0.00 | 28 | 991.1 |
| 20260502121324 | 21 | 101 | 0.0 | 0.0 | 0.00 | 0.00 | 0.00 | 26 | 991.1 |
| 20260502120323 | 22 | 102 | 0.0 | 0.0 | 0.00 | 0.00 | 0.00 | 25 | 990.9 |
| 20260502115338 | 22 | 102 | 0.0 | 0.0 | 0.00 | 0.00 | 0.00 | 25 | 990.8 |
| 20260502114341 | 22 | 102 | 0.0 | 0.0 | 0.00 | 0.00 | 0.00 | 23 | 990.8 |
| 20260502113321 | 22 | 101 | 0.0 | 0.0 | 0.00 | 0.00 | 0.00 | 22 | 990.5 |
| 20260502112323 | 22 | 102 | 0.0 | 1.6 | 0.00 | 0.00 | 0.00 | 22 | 990.3 |
| 20260502111328 | 22 | 102 | 0.0 | 0.0 | 0.00 | 0.00 | 0.00 | 24 | 990.1 |
| 20260502110329 | 23 | 102 | 0.0 | 0.0 | 0.00 | 0.00 | 0.00 | 22 | 990.0 |
| 20260502105325 | 23 | 102 | 0.0 | 1.6 | 0.00 | 0.00 | 0.00 | 21 | 989.8 |
| 20260502104329 | 23 | 105 | 0.0 | 0.0 | 0.00 | 0.00 | 0.00 | 21 | 989.6 |
| 20260502103331 | 23 | 103 | 0.0 | 1.6 | 0.00 | 0.00 | 0.00 | 22 | 989.6 |
| 20260502102313 | 23 | 105 | 0.0 | 1.6 | 0.00 | 0.00 | 0.00 | 21 | 989.4 |
| 20260502101352 | 23 | 74 | 0.0 | 3.2 | 0.00 | 0.00 | 0.00 | 20 | 989.4 |
| 20260502100330 | 23 | 108 | 0.0 | 0.0 | 0.00 | 0.00 | 0.00 | 20 | 989.4 |
| 20260502091336 | 24 | 61 | 0.0 | 6.4 | 0.00 | 0.00 | 0.00 | 19 | 988.7 |
| 20260502090316 | 25 | 127 | 0.0 | 3.2 | 0.00 | 0.00 | 0.00 | 19 | 988.6 |
| 20260502071317 | 26 | 256 | 1.6 | 8.0 | 0.00 | 0.00 | 0.00 | 23 | 987.2 |
| 20260502070337 | 26 | 101 | 1.6 | 6.4 | 0.00 | 0.00 | 0.00 | 24 | 987.2 |
| 20260502065312 | 26 | 278 | 1.6 | 8.0 | 0.00 | 0.00 | 0.00 | 24 | 987.1 |
| 20260502064313 | 26 | 108 | 1.6 | 8.0 | 0.00 | 0.00 | 0.00 | 24 | 987.1 |
| 20260502063326 | 27 | 133 | 4.8 | 9.7 | 0.00 | 0.00 | 0.00 | 23 | 986.9 |
| 20260502062313 | 27 | 310 | 0.0 | 4.8 | 0.00 | 0.00 | 0.00 | 15 | 986.7 |
| 20260502061332 | 27 | 301 | 0.0 | 8.0 | 0.00 | 0.00 | 0.00 | 15 | 986.6 |
| 20260502060332 | 27 | 339 | 4.8 | 9.7 | 0.00 | 0.00 | 0.00 | 15 | 986.4 |
| 20260502055327 | 27 | 358 | 4.8 | 11.3 | 0.00 | 0.00 | 0.00 | 15 | 986.3 |
| 20260502054329 | 27 | 318 | 3.2 | 12.9 | 0.00 | 0.00 | 0.00 | 15 | 986.2 |
| 20260502053324 | 27 | 102 | 1.6 | 11.3 | 0.00 | 0.00 | 0.00 | 15 | 986.2 |
| 20260502052327 | 27 | 92 | 4.8 | 11.3 | 0.00 | 0.00 | 0.00 | 16 | 986.1 |
| 20260502051331 | 27 | 325 | 3.2 | 9.7 | 0.00 | 0.00 | 0.00 | 15 | 986.0 |
| 20260502050350 | 27 | 307 | 3.2 | 12.9 | 0.00 | 0.00 | 0.00 | 15 | 985.9 |
| 20260502045323 | 27 | 308 | 1.6 | 12.9 | 0.00 | 0.00 | 0.00 | 15 | 985.8 |
| 20260502044325 | 27 | 349 | 1.6 | 14.5 | 0.00 | 0.00 | 0.00 | 15 | 985.7 |
| 20260502043325 | 27 | 277 | 1.6 | 20.9 | 0.00 | 0.00 | 0.00 | 15 | 985.6 |
| 20260502042329 | 27 | 65 | 3.2 | 16.1 | 0.00 | 0.00 | 0.00 | 15 | 985.5 |
| 20260502041330 | 26 | 280 | 6.4 | 17.7 | 0.00 | 0.00 | 0.00 | 15 | 985.6 |
| 20260502040331 | 26 | 316 | 1.6 | 12.9 | 0.00 | 0.41 | 0.00 | 16 | 985.4 |
| 20260502035326 | 26 | 310 | 9.7 | 30.6 | 0.00 | 0.41 | 0.00 | 15 | 985.6 |
| 20260502034328 | 26 | 142 | 4.8 | 22.5 | 0.00 | 0.41 | 0.00 | 16 | 985.4 |
| 20260502033358 | 26 | 321 | 4.8 | 11.3 | 0.00 | 0.41 | 0.00 | 17 | 985.2 |
| 20260502032313 | 26 | 333 | 3.2 | 16.1 | 0.00 | 0.41 | 0.00 | 18 | 985.0 |
| 20260502031314 | 26 | 335 | 4.8 | 12.9 | 0.00 | 0.41 | 0.00 | 18 | 985.0 |
| 20260502030315 | 26 | 298 | 3.2 | 19.3 | 0.00 | 1.19 | 0.00 | 19 | 984.9 |
| 20260502025329 | 26 | 319 | 6.4 | 17.7 | 0.00 | 1.19 | 0.00 | 19 | 984.7 |
| 20260502024330 | 25 | 319 | 9.7 | 20.9 | 0.00 | 1.19 | 0.00 | 19 | 984.7 |
| 20260502023352 | 26 | 39 | 8.0 | 19.3 | 0.00 | 1.19 | 0.00 | 20 | 984.6 |
| 20260502022333 | 25 | 269 | 3.2 | 25.7 | 0.00 | 1.19 | 0.00 | 20 | 984.6 |
| 20260502021336 | 25 | 319 | 4.8 | 27.4 | 0.00 | 1.19 | 0.00 | 19 | 984.4 |
| 20260502020336 | 25 | 239 | 3.2 | 16.1 | 0.00 | 2.01 | 0.00 | 19 | 984.2 |
| 20260502015334 | 25 | 218 | 3.2 | 17.7 | 0.00 | 2.01 | 0.00 | 20 | 984.1 |
| 20260502014337 | 25 | 325 | 8.0 | 25.7 | 0.00 | 2.01 | 0.00 | 19 | 983.9 |
| 20260502013334 | 25 | 319 | 3.2 | 22.5 | 0.00 | 2.01 | 0.00 | 21 | 983.7 |
| 20260502012337 | 25 | 298 | 4.8 | 17.7 | 0.00 | 2.01 | 0.00 | 21 | 983.8 |
| 20260502011313 | 24 | 356 | 8.0 | 27.4 | 0.00 | 2.01 | 0.00 | 23 | 983.8 |
| 20260502010340 | 23 | 332 | 1.6 | 8.0 | 0.00 | 5.51 | 0.00 | 27 | 983.9 |
| 20260502005334 | 23 | 264 | 0.0 | 4.8 | 0.00 | 5.51 | 0.00 | 32 | 984.0 |
| 20260502004333 | 22 | 105 | 1.6 | 9.7 | 0.00 | 5.51 | 0.00 | 34 | 983.8 |
| 20260502003314 | 22 | 121 | 4.8 | 11.3 | 0.00 | 5.51 | 0.00 | 34 | 983.7 |
| 20260502002335 | 22 | 266 | 3.2 | 14.5 | 0.00 | 5.51 | 0.00 | 34 | 983.6 |
| 20260502001336 | 22 | 203 | 0.0 | 8.0 | 0.00 | 5.51 | 0.00 | 35 | 983.7 |
| 20260502000332 | 21 | 170 | 3.2 | 6.4 | 0.00 | 10.21 | 0.00 | 35 | 983.6 |
| 20260501235329 | 21 | 276 | 3.2 | 8.0 | 0.00 | 10.21 | 0.00 | 35 | 983.7 |
| 20260501234331 | 21 | 16 | 1.6 | 9.7 | 0.00 | 10.21 | 0.00 | 35 | 983.5 |
| 20260501233334 | 21 | 250 | 1.6 | 4.8 | 0.00 | 10.21 | 0.00 | 33 | 983.4 |
| 20260501232330 | 21 | 304 | 1.6 | 6.4 | 0.00 | 10.21 | 0.00 | 32 | 983.1 |
| 20260501231330 | 20 | 325 | 3.2 | 8.0 | 0.00 | 10.21 | 0.00 | 35 | 982.9 |
| 20260501230329 | 20 | 162 | 1.6 | 6.4 | 0.00 | 11.81 | 0.00 | 37 | 982.8 |
| 20260501225331 | 20 | 241 | 0.0 | 6.4 | 0.00 | 11.81 | 0.00 | 39 | 982.7 |
| 20260501224323 | 19 | 349 | 1.6 | 4.8 | 0.00 | 11.81 | 0.00 | 40 | 982.4 |
| 20260501223352 | 18 | 243 | 0.0 | 4.8 | 0.00 | 11.81 | 0.00 | 41 | 982.3 |
| 20260501222330 | 18 | 214 | 0.0 | 4.8 | 0.00 | 11.81 | 0.00 | 43 | 982.3 |
| 20260501221324 | 18 | 326 | 0.0 | 1.6 | 0.00 | 11.81 | 0.00 | 43 | 982.1 |
| 20260501220326 | 17 | 323 | 1.6 | 8.0 | 0.00 | 11.81 | 0.00 | 45 | 982.0 |
| 20260501215321 | 17 | 335 | 3.2 | 8.0 | 0.00 | 11.81 | 0.00 | 46 | 981.7 |
| 20260501214316 | 17 | 329 | 0.0 | 8.0 | 0.00 | 11.81 | 0.00 | 47 | 981.5 |
| 20260501213319 | 16 | 318 | 1.6 | 8.0 | 0.00 | 11.81 | 0.00 | 48 | 981.2 |
| 20260501212319 | 16 | 345 | 1.6 | 11.3 | 0.00 | 11.81 | 0.00 | 48 | 981.1 |
| 20260501211319 | 16 | 328 | 1.6 | 17.7 | 0.00 | 11.81 | 0.00 | 48 | 980.8 |
| 20260501210318 | 16 | 340 | 4.8 | 12.9 | 0.00 | 11.81 | 0.00 | 49 | 980.8 |
| 20260501205319 | -17 | 0.0 | 0.0 | 0.00 | 11.81 | 0.00 | 980.6 | ||
| 20260501204326 | -17 | 0.0 | 0.0 | 0.00 | 11.81 | 0.00 | 980.5 | ||
| 20260501203325 | -17 | 0.0 | 0.0 | 0.00 | 11.81 | 0.00 | 980.2 | ||
| 20260501202329 | -17 | 0.0 | 0.0 | 0.00 | 11.81 | 0.00 | 980.1 | ||
| 20260501200321 | -17 | 0.0 | 0.0 | 0.00 | 11.81 | 0.00 | 979.3 | ||
| 20260501195347 | -17 | 0.0 | 0.0 | 0.00 | 11.81 | 0.00 | 979.2 | ||
| 20260501194353 | -17 | 0.0 | 0.0 | 0.00 | 11.81 | 0.00 | 979.2 | ||
| 20260501193325 | -17 | 0.0 | 0.0 | 0.00 | 11.81 | 0.00 | 978.8 | ||
| 20260501191345 | -17 | 0.0 | 0.0 | 0.00 | 11.81 | 0.00 | 978.3 | ||
| 20260501190328 | -17 | 0.0 | 0.0 | 0.00 | 11.81 | 0.00 | 978.1 | ||
| 20260501184326 | -17 | 0.0 | 0.0 | 0.00 | 11.81 | 0.00 | 977.3 | ||
| 20260501182319 | -17 | 0.0 | 0.0 | 0.00 | 11.81 | 0.00 | 976.9 | ||
| 20260501181323 | -17 | 0.0 | 0.0 | 0.00 | 11.81 | 0.00 | 976.5 | ||
| 20260501180323 | -17 | 0.0 | 0.0 | 0.00 | 11.81 | 0.00 | 976.3 | ||
| 20260501175323 | -17 | 0.0 | 0.0 | 0.00 | 11.81 | 0.00 | 976.3 | ||
| 20260501173322 | -17 | 0.0 | 0.0 | 0.00 | 11.81 | 0.00 | 975.8 | ||
| 20260501172328 | -17 | 0.0 | 0.0 | 0.00 | 11.81 | 0.00 | 975.7 | ||
| 20260501170333 | 15 | 1 | 4.8 | 17.7 | 0.00 | 11.81 | 0.00 | 59 | 975.3 |
| 20260501165329 | 15 | 212 | 6.4 | 14.5 | 0.00 | 11.81 | 0.00 | 59 | 975.0 |
| 20260501164332 | 15 | 225 | 3.2 | 8.0 | 0.00 | 11.81 | 0.00 | 60 | 975.2 |
| 20260501163341 | 15 | 307 | 6.4 | 17.7 | 0.00 | 11.81 | 0.00 | 61 | 975.1 |
| 20260501162318 | 15 | 25 | 1.6 | 6.4 | 0.00 | 11.81 | 0.00 | 65 | 975.4 |
| 20260501161314 | 15 | 115 | 0.0 | 3.2 | 0.00 | 11.81 | 0.00 | 66 | 975.3 |
| 20260501160317 | 14 | 231 | 0.0 | 1.6 | 0.00 | 11.99 | 0.00 | 66 | 975.4 |